createdAt,value
2018-05-25T00:00:50.270Z,78.32
2018-05-25T00:01:56.672Z,78.35
2018-05-25T00:03:03.477Z,78.35
2018-05-25T00:04:10.342Z,78.34
2018-05-25T00:05:17.142Z,78.29
2018-05-25T00:06:23.922Z,78.26
2018-05-25T00:07:30.726Z,78.23
2018-05-25T00:08:37.531Z,78.19
2018-05-25T00:09:44.309Z,78.20
2018-05-25T00:10:51.395Z,78.21
2018-05-25T00:11:58.256Z,78.25
2018-05-25T00:13:05.027Z,78.28
2018-05-25T00:14:11.855Z,78.25
2018-05-25T00:15:18.746Z,78.27
2018-05-25T00:16:25.515Z,78.29
2018-05-25T00:17:32.409Z,78.29
2018-05-25T00:18:39.270Z,78.32
2018-05-25T00:19:46.027Z,78.30
2018-05-25T00:20:52.822Z,78.29
2018-05-25T00:21:59.698Z,78.28
2018-05-25T00:23:06.990Z,78.31
2018-05-25T00:24:13.234Z,78.35
2018-05-25T00:25:20.050Z,78.37
2018-05-25T00:26:26.806Z,78.35
2018-05-25T00:27:33.633Z,78.34
2018-05-25T00:28:40.393Z,78.29
2018-05-25T00:29:47.134Z,78.26
2018-05-25T00:30:54.257Z,78.27
2018-05-25T00:32:01.080Z,78.27
2018-05-25T00:33:07.867Z,78.23
2018-05-25T00:34:14.614Z,78.24
2018-05-25T00:35:21.467Z,78.28
2018-05-25T00:36:28.205Z,78.28
2018-05-25T00:37:35.201Z,78.33
2018-05-25T00:38:42.053Z,78.34
2018-05-25T00:39:48.947Z,78.37
2018-05-25T00:40:55.732Z,78.35
2018-05-25T00:42:02.508Z,78.34
2018-05-25T00:43:09.314Z,78.31
2018-05-25T00:44:16.131Z,78.28
2018-05-25T00:45:22.900Z,78.28
2018-05-25T00:46:29.698Z,78.23
2018-05-25T00:47:36.446Z,78.22
2018-05-25T00:48:43.182Z,78.24
2018-05-25T00:49:49.959Z,78.22
2018-05-25T00:50:56.742Z,78.19
2018-05-25T00:52:03.801Z,78.21
2018-05-25T00:53:10.549Z,78.18
2018-05-25T00:54:17.331Z,78.18
2018-05-25T00:55:24.078Z,78.18
2018-05-25T00:56:30.871Z,78.16
2018-05-25T00:57:37.733Z,78.13
2018-05-25T00:58:44.603Z,78.09
2018-05-25T00:59:51.373Z,78.10
2018-05-25T01:00:58.153Z,78.07
2018-05-25T01:02:04.983Z,78.12
2018-05-25T01:03:11.750Z,78.10
2018-05-25T01:04:18.526Z,78.08
2018-05-25T01:05:25.358Z,78.08
2018-05-25T01:06:32.135Z,78.07
2018-05-25T01:07:38.968Z,78.08
2018-05-25T01:08:45.749Z,78.08
2018-05-25T01:09:52.515Z,78.05
2018-05-25T01:10:59.325Z,78.00
2018-05-25T01:12:06.146Z,77.95
2018-05-25T01:13:12.938Z,77.92
2018-05-25T01:14:19.778Z,77.96
2018-05-25T01:15:26.543Z,77.94
2018-05-25T01:16:33.353Z,77.92
2018-05-25T01:17:40.114Z,77.89
2018-05-25T01:18:46.893Z,77.90
2018-05-25T01:19:53.719Z,77.90
2018-05-25T01:21:00.503Z,77.88
2018-05-25T01:22:07.514Z,77.91
2018-05-25T01:23:14.390Z,77.91
2018-05-25T01:24:21.125Z,77.82
2018-05-25T01:25:27.938Z,77.72
2018-05-25T01:26:34.693Z,77.66
2018-05-25T01:27:41.426Z,77.60
2018-05-25T01:28:48.187Z,77.54
2018-05-25T01:29:55.246Z,77.55
2018-05-25T01:31:01.991Z,77.55
2018-05-25T01:32:08.799Z,77.54
2018-05-25T01:33:15.557Z,77.54
2018-05-25T01:34:22.374Z,77.52
2018-05-25T01:35:29.144Z,77.54
2018-05-25T01:36:35.927Z,77.53
2018-05-25T01:37:42.726Z,77.49
2018-05-25T01:38:49.473Z,77.47
2018-05-25T01:39:56.277Z,77.48
2018-05-25T01:41:03.030Z,77.46
2018-05-25T01:42:09.806Z,77.44
2018-05-25T01:43:16.643Z,77.43
2018-05-25T01:44:23.361Z,77.43
2018-05-25T01:45:30.190Z,77.40
2018-05-25T01:46:37.038Z,77.42
2018-05-25T01:47:43.794Z,77.38
2018-05-25T01:48:50.817Z,77.38
2018-05-25T01:49:57.574Z,77.38
2018-05-25T01:51:04.350Z,77.30
2018-05-25T01:52:11.161Z,77.27
2018-05-25T01:53:17.954Z,77.25
2018-05-25T01:54:25.061Z,77.19
2018-05-25T01:55:31.775Z,77.20
2018-05-25T01:56:38.670Z,77.18
2018-05-25T01:57:45.491Z,77.15
2018-05-25T01:58:52.222Z,77.15
2018-05-25T01:59:59.146Z,77.13
2018-05-25T02:01:05.910Z,77.13
2018-05-25T02:02:12.656Z,77.13
2018-05-25T02:03:19.380Z,77.13
2018-05-25T02:04:26.154Z,77.17
2018-05-25T02:05:32.890Z,77.15
2018-05-25T02:06:39.772Z,77.16
2018-05-25T02:07:46.516Z,77.13
2018-05-25T02:08:53.270Z,77.17
2018-05-25T02:10:00.011Z,77.21
2018-05-25T02:11:06.811Z,77.24
2018-05-25T02:12:13.561Z,77.28
2018-05-25T02:13:20.397Z,77.28
2018-05-25T02:14:27.194Z,77.28
2018-05-25T02:15:33.958Z,77.32
2018-05-25T02:16:40.739Z,77.28
2018-05-25T02:17:47.531Z,77.28
2018-05-25T02:18:54.253Z,77.29
2018-05-25T02:20:01.102Z,77.27
2018-05-25T02:21:08.010Z,77.27
2018-05-25T02:22:14.743Z,77.33
2018-05-25T02:23:21.496Z,77.35
2018-05-25T02:24:28.313Z,77.35
2018-05-25T02:25:35.092Z,77.37
2018-05-25T02:26:41.857Z,77.36
2018-05-25T02:27:48.694Z,77.38
2018-05-25T02:28:55.435Z,77.39
2018-05-25T02:30:02.210Z,77.38
2018-05-25T02:31:09.179Z,77.39
2018-05-25T02:32:15.905Z,77.36
2018-05-25T02:33:22.650Z,77.34
2018-05-25T02:34:29.434Z,77.33
2018-05-25T02:35:36.535Z,77.32
2018-05-25T02:36:43.357Z,77.32
2018-05-25T02:37:50.101Z,77.37
2018-05-25T02:38:56.913Z,77.37
2018-05-25T02:40:03.690Z,77.41
2018-05-25T02:41:10.707Z,77.45
2018-05-25T02:42:17.728Z,77.44
2018-05-25T02:43:24.470Z,77.43
2018-05-25T02:44:31.250Z,77.40
2018-05-25T02:45:38.007Z,77.34
2018-05-25T02:46:44.802Z,77.31
2018-05-25T02:47:51.656Z,77.35
2018-05-25T02:48:58.433Z,77.36
2018-05-25T02:50:05.186Z,77.42
2018-05-25T02:51:11.975Z,77.36
2018-05-25T02:52:18.716Z,77.30
2018-05-25T02:53:25.521Z,77.29
2018-05-25T02:54:32.393Z,77.35
2018-05-25T02:55:39.144Z,77.37
2018-05-25T02:56:45.925Z,77.37
2018-05-25T02:57:52.662Z,77.41
2018-05-25T02:58:59.461Z,77.37
2018-05-25T03:00:06.285Z,77.37
2018-05-25T03:01:13.134Z,77.41
2018-05-25T03:02:19.920Z,77.43
2018-05-25T03:03:26.662Z,77.45
2018-05-25T03:04:33.415Z,77.49
2018-05-25T03:05:40.213Z,77.52
2018-05-25T03:06:47.065Z,77.53
2018-05-25T03:07:53.848Z,77.58
2018-05-25T03:09:00.612Z,77.59
2018-05-25T03:10:07.675Z,77.67
2018-05-25T03:11:14.454Z,77.70
2018-05-25T03:12:21.223Z,77.72
2018-05-25T03:13:27.993Z,77.73
2018-05-25T03:14:34.725Z,77.77
2018-05-25T03:15:41.473Z,77.78
2018-05-25T03:16:48.273Z,77.77
2018-05-25T03:17:55.151Z,77.74
2018-05-25T03:19:02.058Z,77.77
2018-05-25T03:20:08.923Z,77.82
2018-05-25T03:21:15.666Z,77.84
2018-05-25T03:22:22.761Z,77.87
2018-05-25T03:23:29.523Z,77.91
2018-05-25T03:24:36.283Z,77.95
2018-05-25T03:25:43.312Z,77.93
2018-05-25T03:26:50.120Z,77.94
2018-05-25T03:27:56.905Z,77.93
2018-05-25T03:29:03.687Z,77.91
2018-05-25T03:30:10.439Z,77.95
2018-05-25T03:31:17.295Z,77.93
2018-05-25T03:32:24.046Z,77.99
2018-05-25T03:33:30.817Z,78.02
2018-05-25T03:34:37.601Z,78.03
2018-05-25T03:35:44.442Z,78.05
2018-05-25T03:36:51.242Z,78.05
2018-05-25T03:37:58.202Z,78.06
2018-05-25T03:39:04.998Z,78.08
2018-05-25T03:40:11.799Z,78.07
2018-05-25T03:41:18.642Z,78.07
2018-05-25T03:42:25.554Z,78.08
2018-05-25T03:43:32.423Z,78.07
2018-05-25T03:44:39.207Z,78.11
2018-05-25T03:45:46.206Z,78.11
2018-05-25T03:46:53.071Z,78.11
2018-05-25T03:47:59.941Z,78.12
2018-05-25T03:49:06.786Z,78.13
2018-05-25T03:50:13.534Z,78.16
2018-05-25T03:51:20.357Z,78.17
2018-05-25T03:52:27.136Z,78.23
2018-05-25T03:53:33.917Z,78.27
2018-05-25T03:54:40.822Z,78.32
2018-05-25T03:55:47.581Z,78.32
2018-05-25T03:56:54.370Z,78.36
2018-05-25T03:58:01.131Z,78.35
2018-05-25T03:59:07.900Z,78.37
2018-05-25T04:00:14.874Z,78.39
2018-05-25T04:01:26.454Z,78.37
2018-05-25T04:02:33.581Z,78.37
2018-05-25T04:03:40.334Z,78.36
2018-05-25T04:04:47.114Z,78.45
2018-05-25T04:05:54.154Z,78.47
2018-05-25T04:07:00.931Z,78.47
2018-05-25T04:08:07.804Z,78.53
2018-05-25T04:09:14.623Z,78.56
2018-05-25T04:10:21.382Z,78.62
2018-05-25T04:11:28.182Z,78.59
2018-05-25T04:12:35.031Z,78.57
2018-05-25T04:13:41.800Z,78.58
2018-05-25T04:14:48.579Z,78.58
2018-05-25T04:15:55.371Z,78.67
2018-05-25T04:17:02.159Z,78.72
2018-05-25T04:18:08.993Z,78.77
2018-05-25T04:19:15.771Z,78.84
2018-05-25T04:20:22.525Z,78.89
2018-05-25T04:21:29.354Z,78.93
2018-05-25T04:22:36.413Z,78.97
2018-05-25T04:23:43.211Z,79.01
2018-05-25T04:24:49.966Z,79.02
2018-05-25T04:25:56.747Z,79.09
2018-05-25T04:27:03.504Z,79.13
2018-05-25T04:28:10.249Z,79.14
2018-05-25T04:29:17.010Z,79.17
2018-05-25T04:30:23.838Z,79.18
2018-05-25T04:31:30.623Z,79.21
2018-05-25T04:32:37.390Z,79.26
2018-05-25T04:33:44.286Z,79.33
2018-05-25T04:34:51.039Z,79.35
2018-05-25T04:35:57.787Z,79.42
2018-05-25T04:37:04.568Z,79.50
2018-05-25T04:38:11.299Z,79.53
2018-05-25T04:39:18.062Z,79.57
2018-05-25T04:40:24.879Z,79.63
2018-05-25T04:41:31.651Z,79.71
2018-05-25T04:42:38.638Z,79.77
2018-05-25T04:43:45.466Z,79.80
2018-05-25T04:44:52.672Z,79.86
2018-05-25T04:45:59.466Z,79.92
2018-05-25T04:47:06.226Z,79.94
2018-05-25T04:48:13.018Z,79.99
2018-05-25T04:49:19.810Z,80.07
2018-05-25T04:50:26.713Z,80.15
2018-05-25T04:51:33.571Z,80.24
2018-05-25T04:52:40.372Z,80.33
2018-05-25T04:53:47.114Z,80.44
2018-05-25T04:54:53.909Z,80.55
2018-05-25T04:56:00.664Z,80.60
2018-05-25T04:57:07.495Z,80.65
2018-05-25T04:58:14.258Z,80.68
2018-05-25T04:59:21.259Z,80.77
2018-05-25T05:00:28.009Z,80.81
2018-05-25T05:01:34.756Z,80.86
2018-05-25T05:02:41.555Z,80.96
2018-05-25T05:03:48.555Z,81.05
2018-05-25T05:04:55.090Z,81.07
2018-05-25T05:06:02.168Z,81.17
2018-05-25T05:07:08.956Z,81.25
2018-05-25T05:08:15.678Z,81.28
2018-05-25T05:09:22.463Z,81.37
2018-05-25T05:10:29.287Z,81.43
2018-05-25T05:11:36.189Z,81.52
2018-05-25T05:12:42.970Z,81.58
2018-05-25T05:13:49.765Z,81.70
2018-05-25T05:14:56.569Z,81.69
2018-05-25T05:16:03.460Z,81.78
2018-05-25T05:17:10.341Z,81.84
2018-05-25T05:18:17.102Z,81.89
2018-05-25T05:19:23.842Z,81.95
2018-05-25T05:20:30.678Z,82.04
2018-05-25T05:21:37.554Z,82.16
2018-05-25T05:22:44.552Z,82.22
2018-05-25T05:23:51.391Z,82.33
2018-05-25T05:24:58.151Z,82.41
2018-05-25T05:26:05.038Z,82.50
2018-05-25T05:27:11.818Z,82.61
2018-05-25T05:28:18.543Z,82.63
2018-05-25T05:29:25.562Z,82.73
2018-05-25T05:30:32.376Z,82.82
2018-05-25T05:31:39.146Z,82.88
2018-05-25T05:32:46.212Z,82.98
2018-05-25T05:33:53.006Z,83.09
2018-05-25T05:34:59.810Z,83.15
2018-05-25T05:36:06.826Z,83.25
2018-05-25T05:37:13.886Z,83.37
2018-05-25T05:38:20.715Z,83.47
2018-05-25T05:39:27.620Z,83.56
2018-05-25T05:40:34.487Z,83.65
2018-05-25T05:41:41.250Z,83.75
2018-05-25T05:42:48.087Z,83.81
2018-05-25T05:43:54.862Z,83.87
2018-05-25T05:45:01.623Z,83.96
2018-05-25T05:46:08.855Z,84.08
2018-05-25T05:47:15.756Z,84.16
2018-05-25T05:48:22.540Z,84.26
2018-05-25T05:49:29.294Z,84.34
2018-05-25T05:50:36.122Z,84.39
2018-05-25T05:51:42.908Z,84.47
2018-05-25T05:52:49.942Z,84.55
2018-05-25T05:53:56.812Z,84.64
2018-05-25T05:55:03.642Z,84.73
2018-05-25T05:56:10.622Z,84.84
2018-05-25T05:57:17.434Z,84.91
2018-05-25T05:58:24.162Z,84.99
2018-05-25T05:59:30.926Z,85.09
2018-05-25T06:00:37.689Z,85.19
2018-05-25T06:01:44.435Z,85.23
2018-05-25T06:02:51.239Z,85.33
2018-05-25T06:03:58.377Z,85.42
2018-05-25T06:05:05.155Z,85.47
2018-05-25T06:06:11.980Z,85.56
2018-05-25T06:07:18.850Z,85.67
2018-05-25T06:08:25.862Z,85.77
2018-05-25T06:09:32.609Z,85.84
2018-05-25T06:10:39.410Z,85.91
2018-05-25T06:11:46.225Z,85.98
2018-05-25T06:12:53.144Z,86.08
2018-05-25T06:14:00.015Z,86.17
2018-05-25T06:15:07.035Z,86.21
2018-05-25T06:16:13.983Z,86.28
2018-05-25T06:17:20.992Z,86.37
2018-05-25T06:18:27.848Z,86.41
2018-05-25T06:19:34.654Z,86.44
2018-05-25T06:20:41.497Z,86.53
2018-05-25T06:21:48.475Z,86.60
2018-05-25T06:22:55.993Z,86.66
2018-05-25T06:24:02.447Z,86.72
2018-05-25T06:25:09.403Z,86.77
2018-05-25T06:26:16.309Z,86.84
2018-05-25T06:27:23.146Z,86.90
2018-05-25T06:28:29.910Z,86.99
2018-05-25T06:29:37.014Z,87.04
2018-05-25T06:30:43.986Z,87.12
2018-05-25T06:31:50.746Z,87.19
2018-05-25T06:32:57.607Z,87.27
2018-05-25T06:34:04.375Z,87.33
2018-05-25T06:35:11.152Z,87.39
2018-05-25T06:36:18.011Z,87.43
2018-05-25T06:37:24.860Z,87.51
2018-05-25T06:38:31.650Z,87.53
2018-05-25T06:39:38.458Z,87.60
2018-05-25T06:40:45.345Z,87.66
2018-05-25T06:41:52.291Z,87.74
2018-05-25T06:42:59.417Z,87.80
2018-05-25T06:44:06.204Z,87.85
2018-05-25T06:45:12.985Z,87.90
2018-05-25T06:46:19.810Z,87.96
2018-05-25T06:47:26.619Z,88.00
2018-05-25T06:48:33.423Z,88.07
2018-05-25T06:49:40.210Z,88.08
2018-05-25T06:50:46.996Z,88.17
2018-05-25T06:51:53.912Z,88.20
2018-05-25T06:53:01.047Z,88.25
2018-05-25T06:54:07.991Z,88.33
2018-05-25T06:55:14.510Z,88.38
2018-05-25T06:56:21.421Z,88.43
2018-05-25T06:57:28.386Z,88.48
2018-05-25T06:58:35.250Z,88.53
2018-05-25T06:59:42.022Z,88.61
2018-05-25T07:00:48.834Z,88.67
2018-05-25T07:01:56.654Z,88.76
2018-05-25T07:03:02.472Z,88.80
2018-05-25T07:04:09.267Z,88.86
2018-05-25T07:05:16.071Z,88.91
2018-05-25T07:06:22.946Z,88.94
2018-05-25T07:07:29.742Z,89.00
2018-05-25T07:08:36.506Z,89.04
2018-05-25T07:09:43.262Z,89.10
2018-05-25T07:10:50.021Z,89.14
2018-05-25T07:11:57.090Z,89.17
2018-05-25T07:13:03.911Z,89.23
2018-05-25T07:14:10.758Z,89.27
2018-05-25T07:15:17.511Z,89.30
2018-05-25T07:16:24.302Z,89.33
2018-05-25T07:17:31.122Z,89.35
2018-05-25T07:18:37.882Z,89.38
2018-05-25T07:19:44.667Z,89.42
2018-05-25T07:20:51.454Z,89.48
2018-05-25T07:21:58.235Z,89.52
2018-05-25T07:23:05.030Z,89.56
2018-05-25T07:24:11.810Z,89.60
2018-05-25T07:25:18.578Z,89.65
2018-05-25T07:26:25.395Z,89.63
2018-05-25T07:27:32.226Z,89.68
2018-05-25T07:28:39.006Z,89.72
2018-05-25T07:29:45.766Z,89.74
2018-05-25T07:30:52.841Z,89.74
2018-05-25T07:31:59.677Z,89.77
2018-05-25T07:33:06.494Z,89.81
2018-05-25T07:34:13.354Z,89.81
2018-05-25T07:35:20.169Z,89.82
2018-05-25T07:36:26.925Z,89.84
2018-05-25T07:37:33.791Z,89.89
2018-05-25T07:38:40.594Z,89.92
2018-05-25T07:39:47.562Z,89.94
2018-05-25T07:40:54.330Z,89.93
2018-05-25T07:42:01.120Z,89.99
2018-05-25T07:43:07.923Z,90.03
2018-05-25T07:44:14.688Z,90.04
2018-05-25T07:45:21.477Z,90.11
2018-05-25T07:46:28.308Z,90.13
2018-05-25T07:47:35.178Z,90.15
2018-05-25T07:48:42.044Z,90.19
2018-05-25T07:49:48.892Z,90.22
2018-05-25T07:50:55.782Z,90.24
2018-05-25T07:52:02.575Z,90.25
2018-05-25T07:53:09.387Z,90.32
2018-05-25T07:54:16.239Z,90.35
2018-05-25T07:55:22.998Z,90.36
2018-05-25T07:56:29.879Z,90.42
2018-05-25T07:57:36.811Z,90.43
2018-05-25T07:58:43.641Z,90.41
2018-05-25T07:59:50.480Z,90.43
2018-05-25T08:00:57.394Z,90.47
2018-05-25T08:02:04.220Z,90.50
2018-05-25T08:03:11.044Z,90.50
2018-05-25T08:04:17.840Z,90.51
2018-05-25T08:05:24.600Z,90.56
2018-05-25T08:06:31.342Z,90.58
2018-05-25T08:07:38.139Z,90.62
2018-05-25T08:08:45.179Z,90.63
2018-05-25T08:09:51.966Z,90.68
2018-05-25T08:10:58.719Z,90.71
2018-05-25T08:12:05.481Z,90.76
2018-05-25T08:13:12.489Z,90.79
2018-05-25T08:14:19.424Z,90.81
2018-05-25T08:15:26.250Z,90.84
2018-05-25T08:16:33.135Z,90.83
2018-05-25T08:17:40.156Z,90.86
2018-05-25T08:18:47.007Z,90.88
2018-05-25T08:19:53.779Z,90.93
2018-05-25T08:21:00.725Z,90.95
2018-05-25T08:22:07.897Z,90.97
2018-05-25T08:23:14.231Z,91.00
2018-05-25T08:24:21.037Z,90.99
2018-05-25T08:25:28.123Z,91.04
2018-05-25T08:26:34.955Z,91.06
2018-05-25T08:27:41.787Z,91.05
2018-05-25T08:28:48.917Z,91.11
2018-05-25T08:29:55.698Z,91.13
2018-05-25T08:31:02.562Z,91.17
2018-05-25T08:32:09.429Z,91.21
2018-05-25T08:33:16.295Z,91.25
2018-05-25T08:34:23.170Z,91.30
2018-05-25T08:35:30.360Z,91.34
2018-05-25T08:36:37.017Z,91.38
2018-05-25T08:37:43.983Z,91.41
2018-05-25T08:38:50.778Z,91.43
2018-05-25T08:39:57.604Z,91.47
2018-05-25T08:41:04.406Z,91.50
2018-05-25T08:42:11.466Z,91.54
2018-05-25T08:43:18.300Z,91.58
2018-05-25T08:44:25.251Z,91.60
2018-05-25T08:45:32.160Z,91.64
2018-05-25T08:46:39.135Z,91.65
2018-05-25T08:47:45.975Z,91.67
2018-05-25T08:48:52.847Z,91.73
2018-05-25T08:49:59.981Z,91.75
2018-05-25T08:51:06.951Z,91.79
2018-05-25T08:52:13.842Z,91.84
2018-05-25T08:53:20.730Z,91.87
2018-05-25T08:54:27.562Z,91.89
2018-05-25T08:55:34.395Z,91.85
2018-05-25T08:56:41.463Z,91.90
2018-05-25T08:57:48.239Z,91.92
2018-05-25T08:58:55.015Z,91.96
2018-05-25T09:00:01.843Z,91.97
2018-05-25T09:01:09.006Z,91.99
2018-05-25T09:02:15.896Z,92.02
2018-05-25T09:03:22.718Z,92.01
2018-05-25T09:04:29.516Z,92.05
2018-05-25T09:05:36.371Z,92.07
2018-05-25T09:06:43.407Z,92.11
2018-05-25T09:07:50.236Z,92.13
2018-05-25T09:08:57.031Z,92.13
2018-05-25T09:10:03.806Z,92.17
2018-05-25T09:11:10.615Z,92.19
2018-05-25T09:12:17.420Z,92.23
2018-05-25T09:13:24.234Z,92.26
2018-05-25T09:14:31.032Z,92.27
2018-05-25T09:15:37.994Z,92.29
2018-05-25T09:16:44.812Z,92.34
2018-05-25T09:17:51.648Z,92.36
2018-05-25T09:18:58.469Z,92.40
2018-05-25T09:20:05.274Z,92.41
2018-05-25T09:21:12.074Z,92.45
2018-05-25T09:22:18.868Z,92.49
2018-05-25T09:23:25.647Z,92.51
2018-05-25T09:24:32.419Z,92.54
2018-05-25T09:25:39.303Z,92.59
2018-05-25T09:26:46.154Z,92.60
2018-05-25T09:27:52.983Z,92.63
2018-05-25T09:28:59.782Z,92.64
2018-05-25T09:30:06.600Z,92.69
2018-05-25T09:31:13.386Z,92.74
2018-05-25T09:32:20.298Z,92.77
2018-05-25T09:33:27.167Z,92.79
2018-05-25T09:34:34.079Z,92.82
2018-05-25T09:35:40.999Z,92.83
2018-05-25T09:36:47.868Z,92.88
2018-05-25T09:37:54.723Z,92.94
2018-05-25T09:39:01.598Z,92.95
2018-05-25T09:40:08.710Z,93.00
2018-05-25T09:41:15.593Z,93.02
2018-05-25T09:42:22.476Z,93.07
2018-05-25T09:43:29.295Z,93.09
2018-05-25T09:44:36.236Z,93.09
2018-05-25T09:45:43.162Z,93.11
2018-05-25T09:46:50.114Z,93.16
2018-05-25T09:47:57.097Z,93.20
2018-05-25T09:49:04.025Z,93.25
2018-05-25T09:50:10.928Z,93.32
2018-05-25T09:51:17.804Z,93.36
2018-05-25T09:52:25.986Z,93.36
2018-05-25T09:53:31.830Z,93.39
2018-05-25T09:54:38.690Z,93.40
2018-05-25T09:55:45.504Z,93.43
2018-05-25T09:56:52.283Z,93.44
2018-05-25T09:57:59.262Z,93.45
2018-05-25T09:59:06.218Z,93.48
2018-05-25T10:00:13.079Z,93.47
2018-05-25T10:01:20.146Z,93.50
2018-05-25T10:02:27.071Z,93.50
2018-05-25T10:03:33.902Z,93.52
2018-05-25T10:04:40.688Z,93.53
2018-05-25T10:05:47.504Z,93.56
2018-05-25T10:06:54.304Z,93.57
2018-05-25T10:08:01.107Z,93.61
2018-05-25T10:09:07.906Z,93.65
2018-05-25T10:10:14.686Z,93.66
2018-05-25T10:11:21.443Z,93.70
2018-05-25T10:12:28.599Z,93.73
2018-05-25T10:13:35.387Z,93.75
2018-05-25T10:14:42.287Z,93.78
2018-05-25T10:15:49.087Z,93.81
2018-05-25T10:16:55.918Z,93.84
2018-05-25T10:18:02.719Z,93.88
2018-05-25T10:19:09.506Z,93.91
2018-05-25T10:20:16.305Z,93.96
2018-05-25T10:21:23.098Z,93.98
2018-05-25T10:22:29.858Z,94.03
2018-05-25T10:23:36.689Z,94.06
2018-05-25T10:24:43.502Z,94.11
2018-05-25T10:25:50.248Z,94.15
2018-05-25T10:26:57.238Z,94.16
2018-05-25T10:28:03.983Z,94.20
2018-05-25T10:29:10.833Z,94.21
2018-05-25T10:30:17.660Z,94.25
2018-05-25T10:31:24.410Z,94.27
2018-05-25T10:32:31.211Z,94.32
2018-05-25T10:33:38.046Z,94.34
2018-05-25T10:34:44.794Z,94.37
2018-05-25T10:35:51.891Z,94.39
2018-05-25T10:36:58.652Z,94.45
2018-05-25T10:38:05.637Z,94.46
2018-05-25T10:39:12.848Z,94.50
2018-05-25T10:40:19.161Z,94.52
2018-05-25T10:41:26.150Z,94.58
2018-05-25T10:42:32.964Z,94.63
2018-05-25T10:43:39.789Z,94.65
2018-05-25T10:44:46.583Z,94.67
2018-05-25T10:45:53.368Z,94.68
2018-05-25T10:47:00.303Z,94.67
2018-05-25T10:48:07.392Z,94.72
2018-05-25T10:49:14.395Z,94.77
2018-05-25T10:50:21.421Z,94.82
2018-05-25T10:51:28.320Z,94.86
2018-05-25T10:52:35.107Z,94.91
2018-05-25T10:53:42.051Z,94.95
2018-05-25T10:54:48.863Z,94.98
2018-05-25T10:55:59.035Z,95.02
2018-05-25T10:57:02.803Z,95.09
2018-05-25T10:58:09.632Z,95.14
2018-05-25T10:59:16.504Z,95.15
2018-05-25T11:00:23.475Z,95.20
2018-05-25T11:01:30.296Z,95.21
2018-05-25T11:02:37.154Z,95.27
2018-05-25T11:03:44.344Z,95.31
2018-05-25T11:04:50.733Z,95.35
2018-05-25T11:05:57.675Z,95.33
2018-05-25T11:07:04.729Z,95.34
2018-05-25T11:08:11.635Z,95.31
2018-05-25T11:09:18.659Z,95.35
2018-05-25T11:10:25.528Z,95.38
2018-05-25T11:11:32.464Z,95.42
2018-05-25T11:12:39.477Z,95.47
2018-05-25T11:13:46.551Z,95.49
2018-05-25T11:14:53.296Z,95.53
2018-05-25T11:16:00.423Z,95.55
2018-05-25T11:17:07.342Z,95.62
2018-05-25T11:18:14.175Z,95.63
2018-05-25T11:19:21.047Z,95.59
2018-05-25T11:20:28.015Z,95.57
2018-05-25T11:21:34.956Z,95.53
2018-05-25T11:22:41.872Z,95.45
2018-05-25T11:23:48.722Z,95.43
2018-05-25T11:24:55.683Z,95.48
2018-05-25T11:26:02.550Z,95.45
2018-05-25T11:27:09.488Z,95.42
2018-05-25T11:28:16.486Z,95.43
2018-05-25T11:29:23.403Z,95.35
2018-05-25T11:30:30.440Z,95.28
2018-05-25T11:31:37.396Z,95.07
2018-05-25T11:32:44.356Z,94.88
2018-05-25T11:33:51.235Z,94.81
2018-05-25T11:34:58.310Z,94.84
2018-05-25T11:36:05.139Z,94.87
2018-05-25T11:37:12.028Z,94.91
2018-05-25T11:38:18.875Z,94.66
2018-05-25T11:39:25.864Z,94.46
2018-05-25T11:40:32.775Z,94.53
2018-05-25T11:41:41.684Z,94.54
2018-05-25T11:42:46.609Z,94.43
2018-05-25T11:43:53.445Z,93.99
2018-05-25T11:45:00.210Z,93.62
2018-05-25T11:46:07.134Z,93.39
2018-05-25T11:47:14.122Z,93.44
2018-05-25T11:48:21.048Z,93.06
2018-05-25T11:49:27.561Z,93.00
2018-05-25T11:50:34.572Z,93.14
2018-05-25T11:51:41.500Z,92.84
2018-05-25T11:52:48.514Z,92.57
2018-05-25T11:53:55.275Z,92.72
2018-05-25T11:55:02.151Z,92.74
2018-05-25T11:56:09.194Z,92.31
2018-05-25T11:57:16.119Z,92.31
2018-05-25T11:58:23.203Z,92.23
2018-05-25T11:59:30.028Z,91.75
2018-05-25T12:00:37.118Z,91.69
2018-05-25T12:01:44.035Z,91.49
2018-05-25T12:02:50.712Z,91.25
2018-05-25T12:03:57.696Z,90.94
2018-05-25T12:05:04.622Z,90.86
2018-05-25T12:06:11.561Z,90.68
2018-05-25T12:07:19.410Z,90.53
2018-05-25T12:08:25.318Z,90.36
2018-05-25T12:09:32.183Z,90.26
2018-05-25T12:10:38.986Z,89.88
2018-05-25T12:11:46.110Z,89.63
2018-05-25T12:12:52.658Z,89.17
2018-05-25T12:13:59.523Z,88.94
2018-05-25T12:15:06.440Z,88.95
2018-05-25T12:16:13.292Z,88.84
2018-05-25T12:17:20.127Z,89.01
2018-05-25T12:18:26.954Z,89.26
2018-05-25T12:19:33.917Z,89.17
2018-05-25T12:20:40.916Z,88.60
2018-05-25T12:21:47.904Z,88.33
2018-05-25T12:22:54.876Z,87.84
2018-05-25T12:24:01.810Z,87.49
2018-05-25T12:25:08.656Z,86.91
2018-05-25T12:26:15.546Z,86.74
2018-05-25T12:27:22.594Z,86.69
2018-05-25T12:28:29.527Z,86.59
2018-05-25T12:29:36.330Z,86.37
2018-05-25T12:30:43.142Z,85.91
2018-05-25T12:31:49.989Z,86.00
2018-05-25T12:32:56.798Z,85.87
2018-05-25T12:34:03.717Z,85.15
2018-05-25T12:35:10.518Z,84.68
2018-05-25T12:36:17.338Z,84.41
2018-05-25T12:37:24.145Z,84.15
2018-05-25T12:38:32.097Z,83.89
2018-05-25T12:39:38.034Z,83.52
2018-05-25T12:40:44.879Z,83.26
2018-05-25T12:41:51.775Z,82.90
2018-05-25T12:42:58.620Z,82.86
2018-05-25T12:44:05.522Z,82.79
2018-05-25T12:45:12.339Z,82.75
2018-05-25T12:46:19.402Z,82.55
2018-05-25T12:47:31.660Z,82.57
2018-05-25T12:48:33.296Z,82.70
2018-05-25T12:49:40.189Z,82.65
2018-05-25T12:50:47.054Z,82.31
2018-05-25T12:51:53.826Z,81.69
2018-05-25T12:53:00.615Z,80.96
2018-05-25T12:54:07.486Z,80.57
2018-05-25T12:55:14.281Z,80.23
2018-05-25T12:56:21.062Z,79.91
2018-05-25T12:57:27.927Z,79.82
2018-05-25T12:58:34.749Z,79.71
2018-05-25T12:59:41.725Z,79.76
2018-05-25T13:00:48.522Z,79.93
2018-05-25T13:01:55.592Z,79.73
2018-05-25T13:03:02.430Z,79.83
2018-05-25T13:04:09.295Z,79.90
2018-05-25T13:05:16.155Z,79.82
2018-05-25T13:06:23.171Z,79.84
2018-05-25T13:07:30.038Z,80.06
2018-05-25T13:08:36.905Z,79.71
2018-05-25T13:09:43.797Z,79.46
2018-05-25T13:10:50.576Z,79.42
2018-05-25T13:11:57.600Z,79.43
2018-05-25T13:13:04.431Z,79.12
2018-05-25T13:14:11.389Z,78.94
2018-05-25T13:15:18.237Z,78.87
2018-05-25T13:16:25.087Z,79.08
2018-05-25T13:17:32.064Z,78.88
2018-05-25T13:18:39.092Z,78.81
2018-05-25T13:19:45.919Z,78.71
2018-05-25T13:20:52.703Z,78.35
2018-05-25T13:21:59.634Z,78.10
2018-05-25T13:23:06.406Z,77.99
2018-05-25T13:24:13.409Z,77.66
2018-05-25T13:25:20.668Z,78.09
2018-05-25T13:26:27.155Z,78.34
2018-05-25T13:27:34.157Z,78.08
2018-05-25T13:28:40.938Z,77.35
2018-05-25T13:29:47.799Z,77.28
2018-05-25T13:30:54.626Z,76.89
2018-05-25T13:32:01.427Z,76.72
2018-05-25T13:33:08.202Z,76.50
2018-05-25T13:34:15.059Z,76.54
2018-05-25T13:35:22.020Z,76.23
2018-05-25T13:36:28.811Z,76.04
2018-05-25T13:37:35.630Z,76.12
2018-05-25T13:38:42.504Z,76.46
2018-05-25T13:39:49.334Z,76.63
2018-05-25T13:40:56.120Z,76.39
2018-05-25T13:42:02.986Z,76.39
2018-05-25T13:43:09.790Z,76.01
2018-05-25T13:44:16.676Z,75.83
2018-05-25T13:45:23.490Z,75.94
2018-05-25T13:46:30.522Z,75.55
2018-05-25T13:47:37.513Z,75.51
2018-05-25T13:48:44.416Z,75.69
2018-05-25T13:49:51.296Z,75.73
2018-05-25T13:50:58.175Z,75.53
2018-05-25T13:52:05.076Z,75.53
2018-05-25T13:53:11.971Z,74.87
2018-05-25T13:54:18.848Z,74.66
2018-05-25T13:55:25.675Z,74.51
2018-05-25T13:56:32.553Z,74.47
2018-05-25T13:57:39.454Z,74.34
2018-05-25T13:58:46.309Z,74.06
2018-05-25T13:59:53.155Z,74.08
2018-05-25T14:01:00.067Z,74.23
2018-05-25T14:02:07.221Z,73.68
2018-05-25T14:03:13.782Z,73.50
2018-05-25T14:04:20.647Z,73.65
2018-05-25T14:05:27.575Z,73.42
2018-05-25T14:06:34.413Z,73.28
2018-05-25T14:07:41.283Z,73.07
2018-05-25T14:08:48.270Z,72.76
2018-05-25T14:09:55.095Z,72.62
2018-05-25T14:11:02.007Z,72.55
2018-05-25T14:12:08.859Z,72.58
2018-05-25T14:13:15.730Z,72.08
2018-05-25T14:14:22.630Z,71.80
2018-05-25T14:15:29.498Z,72.02
2018-05-25T14:16:36.317Z,72.27
2018-05-25T14:17:43.235Z,71.92
2018-05-25T14:18:50.087Z,71.82
2018-05-25T14:19:56.935Z,71.74
2018-05-25T14:21:03.915Z,71.63